sensor_id;sensor_type;location;lat;lon;timestamp;pressure;altitude;pressure_sealevel;temperature;humidity
13209;BME280;6669;42.678;23.332;2023-02-20T00:01:49;94839.97;;;9.80;100.00
13209;BME280;6669;42.678;23.332;2023-02-20T00:04:18;94852.63;;;9.84;100.00
13209;BME280;6669;42.678;23.332;2023-02-20T00:06:47;94871.31;;;9.87;100.00
13209;BME280;6669;42.678;23.332;2023-02-20T00:09:16;94804.13;;;9.51;100.00
13209;BME280;6669;42.678;23.332;2023-02-20T00:11:44;94829.56;;;9.72;100.00
13209;BME280;6669;42.678;23.332;2023-02-20T00:14:13;94800.53;;;9.44;100.00
13209;BME280;6669;42.678;23.332;2023-02-20T00:16:41;94850.69;;;9.77;100.00
13209;BME280;6669;42.678;23.332;2023-02-20T00:19:09;94829.91;;;9.53;100.00
13209;BME280;6669;42.678;23.332;2023-02-20T00:21:44;94846.78;;;9.65;100.00
13209;BME280;6669;42.678;23.332;2023-02-20T00:24:13;94854.53;;;9.57;100.00
13209;BME280;6669;42.678;23.332;2023-02-20T00:26:48;94782.50;;;9.26;100.00
13209;BME280;6669;42.678;23.332;2023-02-20T00:29:17;94840.31;;;9.61;100.00
13209;BME280;6669;42.678;23.332;2023-02-20T00:31:50;94822.59;;;9.40;100.00
13209;BME280;6669;42.678;23.332;2023-02-20T00:34:19;94832.63;;;9.43;100.00
13209;BME280;6669;42.678;23.332;2023-02-20T00:36:48;94802.44;;;9.17;100.00
13209;BME280;6669;42.678;23.332;2023-02-20T00:39:18;94840.56;;;9.41;100.00
13209;BME280;6669;42.678;23.332;2023-02-20T00:41:46;94808.78;;;9.23;100.00
13209;BME280;6669;42.678;23.332;2023-02-20T00:44:14;94819.31;;;9.38;100.00
13209;BME280;6669;42.678;23.332;2023-02-20T00:46:42;94844.97;;;9.41;100.00
13209;BME280;6669;42.678;23.332;2023-02-20T00:49:11;94822.72;;;9.22;100.00
13209;BME280;6669;42.678;23.332;2023-02-20T00:51:40;94851.91;;;9.40;100.00
13209;BME280;6669;42.678;23.332;2023-02-20T00:54:08;94858.06;;;9.31;100.00
13209;BME280;6669;42.678;23.332;2023-02-20T00:56:38;94846.84;;;9.14;100.00
13209;BME280;6669;42.678;23.332;2023-02-20T00:59:09;94815.13;;;8.86;100.00
13209;BME280;6669;42.678;23.332;2023-02-20T01:01:37;94875.72;;;9.19;100.00
13209;BME280;6669;42.678;23.332;2023-02-20T01:04:06;94843.19;;;8.90;100.00
13209;BME280;6669;42.678;23.332;2023-02-20T01:06:34;94837.13;;;8.73;100.00
13209;BME280;6669;42.678;23.332;2023-02-20T01:09:04;94850.94;;;8.82;100.00
13209;BME280;6669;42.678;23.332;2023-02-20T01:11:32;94872.03;;;8.87;100.00
13209;BME280;6669;42.678;23.332;2023-02-20T01:14:06;94850.22;;;8.72;100.00
13209;BME280;6669;42.678;23.332;2023-02-20T01:16:34;94887.56;;;8.87;100.00
13209;BME280;6669;42.678;23.332;2023-02-20T01:19:04;94839.78;;;8.55;100.00
13209;BME280;6669;42.678;23.332;2023-02-20T01:21:32;94887.00;;;8.75;100.00
13209;BME280;6669;42.678;23.332;2023-02-20T01:24:00;94884.25;;;8.77;100.00
13209;BME280;6669;42.678;23.332;2023-02-20T01:26:28;94906.00;;;8.84;100.00
13209;BME280;6669;42.678;23.332;2023-02-20T01:28:56;94913.16;;;8.82;100.00
13209;BME280;6669;42.678;23.332;2023-02-20T01:31:26;94920.59;;;8.85;100.00
13209;BME280;6669;42.678;23.332;2023-02-20T01:33:54;94913.03;;;8.92;100.00
13209;BME280;6669;42.678;23.332;2023-02-20T01:36:23;94910.75;;;8.89;100.00
13209;BME280;6669;42.678;23.332;2023-02-20T01:38:54;94916.09;;;8.87;100.00
13209;BME280;6669;42.678;23.332;2023-02-20T01:41:22;94889.75;;;8.74;100.00
13209;BME280;6669;42.678;23.332;2023-02-20T01:43:51;94920.97;;;8.90;100.00
13209;BME280;6669;42.678;23.332;2023-02-20T01:46:48;94906.56;;;8.96;100.00
13209;BME280;6669;42.678;23.332;2023-02-20T01:49:23;94918.56;;;8.97;100.00
13209;BME280;6669;42.678;23.332;2023-02-20T01:51:56;94937.66;;;8.96;100.00
13209;BME280;6669;42.678;23.332;2023-02-20T01:54:26;94911.72;;;8.96;100.00
13209;BME280;6669;42.678;23.332;2023-02-20T01:56:58;94918.38;;;8.98;100.00
13209;BME280;6669;42.678;23.332;2023-02-20T01:59:30;94925.03;;;8.93;100.00
13209;BME280;6669;42.678;23.332;2023-02-20T02:02:00;94933.41;;;8.87;100.00
13209;BME280;6669;42.678;23.332;2023-02-20T02:04:28;94929.34;;;8.84;100.00
13209;BME280;6669;42.678;23.332;2023-02-20T02:06:57;94931.31;;;8.64;100.00
13209;BME280;6669;42.678;23.332;2023-02-20T02:09:34;94916.38;;;8.58;100.00
13209;BME280;6669;42.678;23.332;2023-02-20T02:12:03;94943.91;;;8.59;100.00
13209;BME280;6669;42.678;23.332;2023-02-20T02:14:31;94935.19;;;8.60;100.00
13209;BME280;6669;42.678;23.332;2023-02-20T02:17:20;94940.78;;;8.47;100.00
13209;BME280;6669;42.678;23.332;2023-02-20T02:26:11;94938.25;;;8.19;100.00
13209;BME280;6669;42.678;23.332;2023-02-20T02:29:22;94942.84;;;8.07;100.00
13209;BME280;6669;42.678;23.332;2023-02-20T02:32:34;94980.75;;;8.08;100.00
13209;BME280;6669;42.678;23.332;2023-02-20T02:35:20;94960.75;;;8.00;100.00
13209;BME280;6669;42.678;23.332;2023-02-20T02:38:00;94958.31;;;7.99;100.00
13209;BME280;6669;42.678;23.332;2023-02-20T02:40:37;94943.09;;;7.96;100.00
13209;BME280;6669;42.678;23.332;2023-02-20T02:43:12;94938.19;;;7.93;100.00
13209;BME280;6669;42.678;23.332;2023-02-20T02:45:49;94949.00;;;7.88;100.00
13209;BME280;6669;42.678;23.332;2023-02-20T02:48:21;94978.56;;;7.85;100.00
13209;BME280;6669;42.678;23.332;2023-02-20T02:50:57;94970.44;;;7.80;100.00
13209;BME280;6669;42.678;23.332;2023-02-20T02:53:27;94956.81;;;7.78;100.00
13209;BME280;6669;42.678;23.332;2023-02-20T02:55:55;94968.13;;;7.77;100.00
13209;BME280;6669;42.678;23.332;2023-02-20T02:58:23;94951.63;;;7.78;100.00
13209;BME280;6669;42.678;23.332;2023-02-20T03:00:56;94948.25;;;7.78;100.00
13209;BME280;6669;42.678;23.332;2023-02-20T03:03:28;94957.91;;;7.76;100.00
13209;BME280;6669;42.678;23.332;2023-02-20T03:06:02;94959.34;;;7.70;100.00
13209;BME280;6669;42.678;23.332;2023-02-20T03:08:38;94965.53;;;7.77;100.00
13209;BME280;6669;42.678;23.332;2023-02-20T03:11:08;94968.28;;;7.76;100.00
13209;BME280;6669;42.678;23.332;2023-02-20T03:13:41;94990.22;;;7.72;100.00
13209;BME280;6669;42.678;23.332;2023-02-20T03:16:31;94986.00;;;7.71;100.00
13209;BME280;6669;42.678;23.332;2023-02-20T03:19:00;94986.81;;;7.71;100.00
13209;BME280;6669;42.678;23.332;2023-02-20T03:21:31;94998.94;;;7.71;100.00
13209;BME280;6669;42.678;23.332;2023-02-20T03:24:03;94988.44;;;7.72;100.00
13209;BME280;6669;42.678;23.332;2023-02-20T03:26:33;95004.53;;;7.66;100.00
13209;BME280;6669;42.678;23.332;2023-02-20T03:29:06;94992.88;;;7.62;100.00
13209;BME280;6669;42.678;23.332;2023-02-20T03:31:40;94999.28;;;7.58;100.00
13209;BME280;6669;42.678;23.332;2023-02-20T03:34:13;95019.31;;;7.56;100.00
13209;BME280;6669;42.678;23.332;2023-02-20T03:37:02;95023.94;;;7.52;100.00
13209;BME280;6669;42.678;23.332;2023-02-20T03:39:52;95018.50;;;7.55;100.00
13209;BME280;6669;42.678;23.332;2023-02-20T03:42:42;95010.88;;;7.53;100.00
13209;BME280;6669;42.678;23.332;2023-02-20T03:45:30;95023.00;;;7.53;100.00
13209;BME280;6669;42.678;23.332;2023-02-20T03:48:02;95020.03;;;7.48;100.00
13209;BME280;6669;42.678;23.332;2023-02-20T03:50:32;95016.63;;;7.47;100.00
13209;BME280;6669;42.678;23.332;2023-02-20T03:53:00;95008.03;;;7.47;100.00
13209;BME280;6669;42.678;23.332;2023-02-20T03:55:30;95013.91;;;7.49;100.00
13209;BME280;6669;42.678;23.332;2023-02-20T03:58:02;95028.34;;;7.42;100.00
13209;BME280;6669;42.678;23.332;2023-02-20T04:00:37;95032.72;;;7.41;100.00
13209;BME280;6669;42.678;23.332;2023-02-20T04:03:11;95059.22;;;7.43;100.00
13209;BME280;6669;42.678;23.332;2023-02-20T04:05:42;95022.22;;;7.43;100.00
13209;BME280;6669;42.678;23.332;2023-02-20T04:08:15;95014.31;;;7.44;100.00
13209;BME280;6669;42.678;23.332;2023-02-20T04:10:57;95012.97;;;7.40;100.00
13209;BME280;6669;42.678;23.332;2023-02-20T04:13:27;95037.03;;;7.50;100.00
13209;BME280;6669;42.678;23.332;2023-02-20T04:15:59;95038.50;;;7.53;100.00
13209;BME280;6669;42.678;23.332;2023-02-20T04:18:27;95034.25;;;7.62;100.00
13209;BME280;6669;42.678;23.332;2023-02-20T04:20:58;95024.22;;;7.59;100.00
13209;BME280;6669;42.678;23.332;2023-02-20T04:23:28;95031.66;;;7.62;100.00
13209;BME280;6669;42.678;23.332;2023-02-20T04:26:01;95034.09;;;7.63;100.00
13209;BME280;6669;42.678;23.332;2023-02-20T04:28:31;95037.53;;;7.64;100.00
13209;BME280;6669;42.678;23.332;2023-02-20T04:30:59;95054.28;;;7.60;100.00
13209;BME280;6669;42.678;23.332;2023-02-20T04:33:27;95053.63;;;7.58;100.00
13209;BME280;6669;42.678;23.332;2023-02-20T04:35:55;95066.97;;;7.53;100.00
13209;BME280;6669;42.678;23.332;2023-02-20T04:38:24;95035.84;;;7.45;100.00
13209;BME280;6669;42.678;23.332;2023-02-20T04:40:52;95053.69;;;7.38;100.00
13209;BME280;6669;42.678;23.332;2023-02-20T04:43:21;95031.09;;;7.30;100.00
13209;BME280;6669;42.678;23.332;2023-02-20T04:45:49;95011.81;;;7.25;100.00
13209;BME280;6669;42.678;23.332;2023-02-20T04:48:17;95045.28;;;7.26;100.00
13209;BME280;6669;42.678;23.332;2023-02-20T04:50:45;95030.78;;;7.15;100.00
13209;BME280;6669;42.678;23.332;2023-02-20T04:53:12;95060.56;;;7.19;100.00
13209;BME280;6669;42.678;23.332;2023-02-20T04:55:40;95036.59;;;7.17;100.00
13209;BME280;6669;42.678;23.332;2023-02-20T04:58:08;95052.94;;;7.18;100.00
13209;BME280;6669;42.678;23.332;2023-02-20T05:00:37;95047.78;;;7.18;100.00
13209;BME280;6669;42.678;23.332;2023-02-20T05:03:05;95058.38;;;7.15;100.00
13209;BME280;6669;42.678;23.332;2023-02-20T05:05:33;95053.66;;;7.10;100.00
13209;BME280;6669;42.678;23.332;2023-02-20T05:08:03;95085.31;;;7.12;100.00
13209;BME280;6669;42.678;23.332;2023-02-20T05:10:33;95076.22;;;7.08;100.00
13209;BME280;6669;42.678;23.332;2023-02-20T05:13:02;95071.84;;;7.09;100.00
13209;BME280;6669;42.678;23.332;2023-02-20T05:15:31;95064.94;;;6.99;100.00
13209;BME280;6669;42.678;23.332;2023-02-20T05:18:00;95066.19;;;6.95;100.00
13209;BME280;6669;42.678;23.332;2023-02-20T05:20:28;95073.66;;;6.98;100.00
13209;BME280;6669;42.678;23.332;2023-02-20T05:23:14;95079.75;;;6.97;100.00
13209;BME280;6669;42.678;23.332;2023-02-20T05:25:42;95067.94;;;6.95;100.00
13209;BME280;6669;42.678;23.332;2023-02-20T05:28:10;95078.97;;;6.87;100.00
13209;BME280;6669;42.678;23.332;2023-02-20T05:30:37;95071.91;;;6.89;100.00
13209;BME280;6669;42.678;23.332;2023-02-20T05:33:07;95082.63;;;6.84;100.00
13209;BME280;6669;42.678;23.332;2023-02-20T05:35:35;95097.88;;;6.87;100.00
13209;BME280;6669;42.678;23.332;2023-02-20T05:38:05;95110.81;;;6.87;100.00
13209;BME280;6669;42.678;23.332;2023-02-20T05:40:33;95109.97;;;6.87;100.00
13209;BME280;6669;42.678;23.332;2023-02-20T05:43:01;95126.16;;;6.89;100.00
13209;BME280;6669;42.678;23.332;2023-02-20T05:45:29;95108.47;;;6.84;100.00
13209;BME280;6669;42.678;23.332;2023-02-20T05:47:57;95113.94;;;6.81;100.00
13209;BME280;6669;42.678;23.332;2023-02-20T05:50:26;95115.56;;;6.73;100.00
13209;BME280;6669;42.678;23.332;2023-02-20T05:52:54;95108.59;;;6.73;100.00
13209;BME280;6669;42.678;23.332;2023-02-20T05:55:22;95106.72;;;6.75;100.00
13209;BME280;6669;42.678;23.332;2023-02-20T05:57:50;95110.78;;;6.78;100.00
13209;BME280;6669;42.678;23.332;2023-02-20T06:00:19;95100.59;;;6.76;100.00
13209;BME280;6669;42.678;23.332;2023-02-20T06:02:47;95112.84;;;6.84;100.00
13209;BME280;6669;42.678;23.332;2023-02-20T06:05:15;95106.44;;;6.88;100.00
13209;BME280;6669;42.678;23.332;2023-02-20T06:07:45;95129.84;;;6.96;100.00
13209;BME280;6669;42.678;23.332;2023-02-20T06:10:14;95142.75;;;7.06;100.00
13209;BME280;6669;42.678;23.332;2023-02-20T06:12:42;95120.97;;;7.18;100.00
13209;BME280;6669;42.678;23.332;2023-02-20T06:15:10;95121.75;;;7.29;100.00
13209;BME280;6669;42.678;23.332;2023-02-20T06:17:38;95128.03;;;7.36;100.00
13209;BME280;6669;42.678;23.332;2023-02-20T06:20:07;95123.25;;;7.41;100.00
13209;BME280;6669;42.678;23.332;2023-02-20T06:22:35;95122.94;;;7.44;100.00
13209;BME280;6669;42.678;23.332;2023-02-20T06:25:05;95120.25;;;7.46;100.00
13209;BME280;6669;42.678;23.332;2023-02-20T06:27:33;95137.09;;;7.50;100.00
13209;BME280;6669;42.678;23.332;2023-02-20T06:30:01;95129.59;;;7.57;100.00
13209;BME280;6669;42.678;23.332;2023-02-20T06:32:29;95131.50;;;7.55;100.00
13209;BME280;6669;42.678;23.332;2023-02-20T06:34:57;95140.72;;;7.67;100.00
13209;BME280;6669;42.678;23.332;2023-02-20T06:37:25;95143.44;;;7.75;100.00
13209;BME280;6669;42.678;23.332;2023-02-20T06:39:53;95142.47;;;7.76;100.00
13209;BME280;6669;42.678;23.332;2023-02-20T06:42:22;95141.25;;;7.80;100.00
13209;BME280;6669;42.678;23.332;2023-02-20T06:44:50;95149.66;;;7.82;100.00
13209;BME280;6669;42.678;23.332;2023-02-20T06:47:18;95147.47;;;7.88;100.00
13209;BME280;6669;42.678;23.332;2023-02-20T06:49:46;95130.19;;;7.78;100.00
13209;BME280;6669;42.678;23.332;2023-02-20T06:52:14;95159.94;;;7.64;100.00
13209;BME280;6669;42.678;23.332;2023-02-20T06:54:42;95152.72;;;7.58;100.00
13209;BME280;6669;42.678;23.332;2023-02-20T06:57:10;95141.56;;;7.58;100.00
13209;BME280;6669;42.678;23.332;2023-02-20T06:59:43;95142.44;;;7.48;100.00
13209;BME280;6669;42.678;23.332;2023-02-20T07:02:14;95151.94;;;7.48;100.00
13209;BME280;6669;42.678;23.332;2023-02-20T07:04:47;95165.28;;;7.53;100.00
13209;BME280;6669;42.678;23.332;2023-02-20T07:07:15;95143.06;;;7.60;100.00
13209;BME280;6669;42.678;23.332;2023-02-20T07:09:43;95147.00;;;7.64;100.00
13209;BME280;6669;42.678;23.332;2023-02-20T07:12:11;95148.09;;;7.62;100.00
13209;BME280;6669;42.678;23.332;2023-02-20T07:14:39;95149.03;;;7.71;100.00
13209;BME280;6669;42.678;23.332;2023-02-20T07:17:08;95149.41;;;7.76;100.00
13209;BME280;6669;42.678;23.332;2023-02-20T07:19:36;95152.53;;;7.79;100.00
13209;BME280;6669;42.678;23.332;2023-02-20T07:22:04;95197.34;;;7.80;100.00
13209;BME280;6669;42.678;23.332;2023-02-20T07:24:32;95170.66;;;7.79;100.00
13209;BME280;6669;42.678;23.332;2023-02-20T07:27:01;95160.00;;;7.82;100.00
13209;BME280;6669;42.678;23.332;2023-02-20T07:29:29;95197.06;;;7.83;100.00
13209;BME280;6669;42.678;23.332;2023-02-20T07:31:57;95199.16;;;7.69;100.00
13209;BME280;6669;42.678;23.332;2023-02-20T07:34:27;95166.91;;;7.64;100.00
13209;BME280;6669;42.678;23.332;2023-02-20T07:36:55;95181.72;;;7.62;100.00
13209;BME280;6669;42.678;23.332;2023-02-20T07:39:23;95144.72;;;7.61;100.00
13209;BME280;6669;42.678;23.332;2023-02-20T07:41:51;95204.31;;;7.60;100.00
13209;BME280;6669;42.678;23.332;2023-02-20T07:44:19;95206.81;;;7.51;100.00
13209;BME280;6669;42.678;23.332;2023-02-20T07:46:47;95164.88;;;7.38;100.00
13209;BME280;6669;42.678;23.332;2023-02-20T07:49:15;95197.25;;;7.52;100.00
13209;BME280;6669;42.678;23.332;2023-02-20T07:51:45;95188.69;;;7.51;99.71
13209;BME280;6669;42.678;23.332;2023-02-20T07:54:13;95187.59;;;7.54;100.00
13209;BME280;6669;42.678;23.332;2023-02-20T07:56:41;95245.59;;;7.61;100.00
13209;BME280;6669;42.678;23.332;2023-02-20T07:59:09;95207.47;;;7.63;100.00
13209;BME280;6669;42.678;23.332;2023-02-20T08:01:37;95188.69;;;7.61;100.00
13209;BME280;6669;42.678;23.332;2023-02-20T08:04:05;95237.41;;;7.76;100.00
13209;BME280;6669;42.678;23.332;2023-02-20T08:06:33;95239.06;;;7.67;99.52
13209;BME280;6669;42.678;23.332;2023-02-20T08:09:03;95205.53;;;7.75;99.65
13209;BME280;6669;42.678;23.332;2023-02-20T08:11:32;95213.41;;;7.83;99.05
13209;BME280;6669;42.678;23.332;2023-02-20T08:14:02;95225.94;;;7.88;97.65
13209;BME280;6669;42.678;23.332;2023-02-20T08:16:31;95209.03;;;7.94;96.49
13209;BME280;6669;42.678;23.332;2023-02-20T08:19:00;95225.34;;;8.04;95.68
13209;BME280;6669;42.678;23.332;2023-02-20T08:21:28;95210.97;;;8.19;95.39
13209;BME280;6669;42.678;23.332;2023-02-20T08:23:56;95192.38;;;8.06;94.19
13209;BME280;6669;42.678;23.332;2023-02-20T08:26:26;95216.44;;;8.16;93.32
13209;BME280;6669;42.678;23.332;2023-02-20T08:28:54;95216.34;;;8.08;93.05
13209;BME280;6669;42.678;23.332;2023-02-20T08:31:22;95193.16;;;8.07;92.77
13209;BME280;6669;42.678;23.332;2023-02-20T08:33:57;95227.19;;;8.22;92.64
13209;BME280;6669;42.678;23.332;2023-02-20T08:36:25;95212.13;;;8.07;91.78
13209;BME280;6669;42.678;23.332;2023-02-20T08:38:53;95210.88;;;8.11;92.39
13209;BME280;6669;42.678;23.332;2023-02-20T08:41:22;95231.59;;;8.11;92.33
13209;BME280;6669;42.678;23.332;2023-02-20T08:43:52;95224.50;;;8.13;92.45
13209;BME280;6669;42.678;23.332;2023-02-20T08:46:20;95217.00;;;8.10;93.12
13209;BME280;6669;42.678;23.332;2023-02-20T08:48:48;95203.41;;;8.08;92.77
13209;BME280;6669;42.678;23.332;2023-02-20T08:51:17;95201.81;;;8.25;92.78
13209;BME280;6669;42.678;23.332;2023-02-20T08:53:46;95170.53;;;8.46;91.29
13209;BME280;6669;42.678;23.332;2023-02-20T08:56:17;95206.09;;;8.44;90.71
13209;BME280;6669;42.678;23.332;2023-02-20T08:58:45;95216.97;;;8.58;89.78
13209;BME280;6669;42.678;23.332;2023-02-20T09:01:14;95207.28;;;8.60;89.11
13209;BME280;6669;42.678;23.332;2023-02-20T09:03:44;95207.06;;;8.71;88.11
13209;BME280;6669;42.678;23.332;2023-02-20T09:06:12;95213.59;;;8.75;88.16
13209;BME280;6669;42.678;23.332;2023-02-20T09:08:40;95234.44;;;8.56;84.96
13209;BME280;6669;42.678;23.332;2023-02-20T09:11:08;95200.06;;;8.54;84.90
13209;BME280;6669;42.678;23.332;2023-02-20T09:13:41;95228.00;;;8.60;83.59
13209;BME280;6669;42.678;23.332;2023-02-20T09:16:10;95204.41;;;8.63;83.52
13209;BME280;6669;42.678;23.332;2023-02-20T09:18:40;95240.72;;;8.81;83.84
13209;BME280;6669;42.678;23.332;2023-02-20T09:21:09;95201.31;;;8.77;84.00
13209;BME280;6669;42.678;23.332;2023-02-20T09:23:37;95201.75;;;8.91;83.19
13209;BME280;6669;42.678;23.332;2023-02-20T09:26:06;95198.72;;;8.95;81.38
13209;BME280;6669;42.678;23.332;2023-02-20T09:28:34;95209.69;;;8.89;81.74
13209;BME280;6669;42.678;23.332;2023-02-20T09:31:02;95189.25;;;8.86;82.48
13209;BME280;6669;42.678;23.332;2023-02-20T09:33:31;95225.91;;;8.73;82.82
13209;BME280;6669;42.678;23.332;2023-02-20T09:36:00;95203.31;;;8.83;82.82
13209;BME280;6669;42.678;23.332;2023-02-20T09:38:28;95204.34;;;8.91;83.40
13209;BME280;6669;42.678;23.332;2023-02-20T09:40:58;95225.59;;;8.76;84.07
13209;BME280;6669;42.678;23.332;2023-02-20T09:43:37;95201.59;;;8.74;84.50
13209;BME280;6669;42.678;23.332;2023-02-20T09:46:10;95171.53;;;8.99;83.80
13209;BME280;6669;42.678;23.332;2023-02-20T09:48:53;95211.38;;;9.53;82.46
13209;BME280;6669;42.678;23.332;2023-02-20T09:51:29;95187.13;;;9.96;81.36
13209;BME280;6669;42.678;23.332;2023-02-20T09:54:02;95206.41;;;10.12;77.82
13209;BME280;6669;42.678;23.332;2023-02-20T09:56:34;95211.88;;;10.09;76.51
13209;BME280;6669;42.678;23.332;2023-02-20T09:59:06;95217.06;;;10.35;76.12
13209;BME280;6669;42.678;23.332;2023-02-20T10:01:38;95209.81;;;10.39;74.58
13209;BME280;6669;42.678;23.332;2023-02-20T10:04:10;95196.75;;;10.73;72.16
13209;BME280;6669;42.678;23.332;2023-02-20T10:06:43;95229.66;;;10.99;69.74
13209;BME280;6669;42.678;23.332;2023-02-20T10:09:13;95194.53;;;10.95;68.28
13209;BME280;6669;42.678;23.332;2023-02-20T10:11:49;95203.00;;;11.05;67.75
13209;BME280;6669;42.678;23.332;2023-02-20T10:14:35;95202.72;;;11.50;66.67
13209;BME280;6669;42.678;23.332;2023-02-20T10:17:14;95179.59;;;11.30;65.23
13209;BME280;6669;42.678;23.332;2023-02-20T10:19:50;95202.34;;;11.03;65.48
13209;BME280;6669;42.678;23.332;2023-02-20T10:22:24;95171.56;;;10.74;64.30
13209;BME280;6669;42.678;23.332;2023-02-20T10:25:03;95174.63;;;10.61;65.01
13209;BME280;6669;42.678;23.332;2023-02-20T10:27:42;95198.72;;;10.79;64.17
13209;BME280;6669;42.678;23.332;2023-02-20T10:30:11;95185.06;;;10.69;63.42
13209;BME280;6669;42.678;23.332;2023-02-20T10:32:44;95185.13;;;10.51;64.35
13209;BME280;6669;42.678;23.332;2023-02-20T10:35:17;95165.22;;;10.68;63.31
13209;BME280;6669;42.678;23.332;2023-02-20T10:37:53;95167.19;;;10.83;63.00
13209;BME280;6669;42.678;23.332;2023-02-20T10:40:24;95166.59;;;11.22;62.84
13209;BME280;6669;42.678;23.332;2023-02-20T10:42:58;95160.91;;;11.26;62.77
13209;BME280;6669;42.678;23.332;2023-02-20T10:45:36;95166.94;;;11.35;63.09
13209;BME280;6669;42.678;23.332;2023-02-20T10:48:07;95184.97;;;11.28;63.38
13209;BME280;6669;42.678;23.332;2023-02-20T10:50:38;95161.38;;;11.22;63.76
13209;BME280;6669;42.678;23.332;2023-02-20T10:53:18;95166.94;;;11.19;61.60
13209;BME280;6669;42.678;23.332;2023-02-20T10:55:52;95166.25;;;11.41;61.01
13209;BME280;6669;42.678;23.332;2023-02-20T10:58:25;95149.44;;;11.77;60.49
13209;BME280;6669;42.678;23.332;2023-02-20T11:00:58;95202.34;;;11.94;59.10
13209;BME280;6669;42.678;23.332;2023-02-20T11:03:33;95182.47;;;11.93;58.43
13209;BME280;6669;42.678;23.332;2023-02-20T11:06:04;95163.25;;;11.86;59.09
13209;BME280;6669;42.678;23.332;2023-02-20T11:08:35;95154.50;;;11.70;59.69
13209;BME280;6669;42.678;23.332;2023-02-20T11:11:20;95130.91;;;11.72;59.76
13209;BME280;6669;42.678;23.332;2023-02-20T11:13:48;95144.22;;;12.02;59.79
13209;BME280;6669;42.678;23.332;2023-02-20T11:16:22;95138.47;;;12.06;59.45
13209;BME280;6669;42.678;23.332;2023-02-20T11:18:55;95142.78;;;11.74;60.53
13209;BME280;6669;42.678;23.332;2023-02-20T11:21:36;95131.38;;;11.84;60.80
13209;BME280;6669;42.678;23.332;2023-02-20T11:24:29;95124.84;;;11.96;60.47
13209;BME280;6669;42.678;23.332;2023-02-20T11:27:06;95117.66;;;12.38;59.38
13209;BME280;6669;42.678;23.332;2023-02-20T11:29:40;95088.38;;;12.36;59.37
13209;BME280;6669;42.678;23.332;2023-02-20T11:32:30;95117.50;;;12.71;59.20
13209;BME280;6669;42.678;23.332;2023-02-20T11:35:27;95116.59;;;12.55;59.48
13209;BME280;6669;42.678;23.332;2023-02-20T11:38:27;95186.72;;;12.82;58.18
13209;BME280;6669;42.678;23.332;2023-02-20T11:41:22;95106.53;;;12.21;59.31
13209;BME280;6669;42.678;23.332;2023-02-20T11:47:09;95142.25;;;12.43;59.08
13209;BME280;6669;42.678;23.332;2023-02-20T11:49:38;95118.63;;;12.45;59.13
13209;BME280;6669;42.678;23.332;2023-02-20T11:52:08;95120.47;;;12.36;58.95
13209;BME280;6669;42.678;23.332;2023-02-20T11:54:37;95104.56;;;12.78;58.61
13209;BME280;6669;42.678;23.332;2023-02-20T11:57:19;95117.56;;;12.86;58.01
13209;BME280;6669;42.678;23.332;2023-02-20T11:59:51;95118.22;;;13.26;58.04
13209;BME280;6669;42.678;23.332;2023-02-20T12:02:34;95100.28;;;12.85;57.23
13209;BME280;6669;42.678;23.332;2023-02-20T12:05:10;95106.53;;;12.99;57.58
13209;BME280;6669;42.678;23.332;2023-02-20T12:07:42;95131.69;;;12.68;57.55
13209;BME280;6669;42.678;23.332;2023-02-20T12:10:32;95098.81;;;12.59;57.48
13209;BME280;6669;42.678;23.332;2023-02-20T12:13:04;95098.63;;;12.37;58.10
13209;BME280;6669;42.678;23.332;2023-02-20T12:15:33;95079.22;;;12.63;57.95
13209;BME280;6669;42.678;23.332;2023-02-20T12:18:32;95086.16;;;12.79;56.98
13209;BME280;6669;42.678;23.332;2023-02-20T12:21:22;95106.81;;;12.57;58.14
13209;BME280;6669;42.678;23.332;2023-02-20T12:24:06;95080.88;;;12.64;57.04
13209;BME280;6669;42.678;23.332;2023-02-20T12:26:45;95094.00;;;12.94;57.07
13209;BME280;6669;42.678;23.332;2023-02-20T12:29:37;95090.91;;;12.44;57.47
13209;BME280;6669;42.678;23.332;2023-02-20T12:32:19;95079.25;;;12.32;57.66
13209;BME280;6669;42.678;23.332;2023-02-20T12:35:05;95057.44;;;12.79;57.15
13209;BME280;6669;42.678;23.332;2023-02-20T12:37:48;95067.63;;;12.89;56.81
13209;BME280;6669;42.678;23.332;2023-02-20T12:40:27;95114.06;;;13.17;56.81
13209;BME280;6669;42.678;23.332;2023-02-20T12:43:12;95084.28;;;12.65;57.16
13209;BME280;6669;42.678;23.332;2023-02-20T12:45:51;95084.97;;;12.58;56.81
13209;BME280;6669;42.678;23.332;2023-02-20T12:48:33;95078.34;;;12.94;56.09
13209;BME280;6669;42.678;23.332;2023-02-20T12:51:12;95078.84;;;12.74;56.71
13209;BME280;6669;42.678;23.332;2023-02-20T12:53:50;95098.19;;;12.80;56.95
13209;BME280;6669;42.678;23.332;2023-02-20T12:56:36;95065.19;;;12.87;56.29
13209;BME280;6669;42.678;23.332;2023-02-20T12:59:20;95081.19;;;13.07;56.62
13209;BME280;6669;42.678;23.332;2023-02-20T13:01:51;95037.09;;;12.74;56.61
13209;BME280;6669;42.678;23.332;2023-02-20T13:04:25;95081.91;;;12.78;56.22
13209;BME280;6669;42.678;23.332;2023-02-20T13:07:01;95065.53;;;13.07;55.26
13209;BME280;6669;42.678;23.332;2023-02-20T13:09:32;95109.78;;;13.24;55.91
13209;BME280;6669;42.678;23.332;2023-02-20T13:12:06;95136.63;;;13.09;54.93
13209;BME280;6669;42.678;23.332;2023-02-20T13:14:51;95055.63;;;13.03;56.14
13209;BME280;6669;42.678;23.332;2023-02-20T13:17:31;95109.13;;;13.60;55.35
13209;BME280;6669;42.678;23.332;2023-02-20T13:20:17;95116.19;;;13.75;55.01
13209;BME280;6669;42.678;23.332;2023-02-20T13:23:03;95112.75;;;13.74;55.11
13209;BME280;6669;42.678;23.332;2023-02-20T13:25:37;95077.28;;;13.80;54.31
13209;BME280;6669;42.678;23.332;2023-02-20T13:28:22;95080.78;;;13.19;55.32
13209;BME280;6669;42.678;23.332;2023-02-20T13:31:10;95110.94;;;13.89;54.88
13209;BME280;6669;42.678;23.332;2023-02-20T13:33:42;95064.66;;;13.15;54.58
13209;BME280;6669;42.678;23.332;2023-02-20T13:36:16;95152.16;;;13.26;55.91
13209;BME280;6669;42.678;23.332;2023-02-20T13:39:24;95148.53;;;13.12;56.60
13209;BME280;6669;42.678;23.332;2023-02-20T13:41:57;95142.97;;;13.38;56.11